createdAt,value
2017-07-29T16:29:09.924Z,7076
2017-07-29T16:39:09.980Z,5684
2017-07-29T16:49:12.896Z,5176
2017-07-29T16:59:09.859Z,3296
2017-07-29T17:09:09.953Z,3832
2017-07-29T17:19:09.978Z,4076
2017-07-29T17:29:09.990Z,2368
2017-07-29T17:39:09.929Z,1728
2017-07-29T17:49:09.903Z,3036
2017-07-29T17:59:09.941Z,2852
2017-07-29T18:09:15.147Z,1252
2017-07-29T18:19:14.016Z,980
2017-07-29T18:29:14.093Z,728
2017-07-29T18:39:13.836Z,552
2017-07-29T18:49:14.613Z,300
2017-07-29T18:59:15.311Z,172
2017-07-29T19:09:13.787Z,148
2017-07-29T19:19:13.848Z,72
2017-07-29T19:29:09.970Z,56
2017-07-29T19:39:09.929Z,24
2017-07-29T19:49:10.000Z,12
2017-07-29T19:59:09.947Z,4
2017-07-29T20:09:10.080Z,0
2017-07-29T20:19:09.995Z,0
2017-07-29T20:29:09.970Z,0
2017-07-29T20:39:10.042Z,4
2017-07-29T20:49:09.957Z,4
2017-07-29T20:59:09.904Z,4
2017-07-29T21:09:10.010Z,8
2017-07-29T21:19:09.914Z,4
2017-07-29T21:29:10.030Z,4
2017-07-29T21:39:10.039Z,4
2017-07-29T21:49:09.931Z,4
2017-07-29T21:59:10.008Z,4
2017-07-29T22:09:09.969Z,0
2017-07-29T22:19:10.045Z,0
2017-07-29T22:29:09.981Z,4
2017-07-29T22:39:09.923Z,0
2017-07-29T22:49:09.984Z,0
2017-07-29T22:59:09.986Z,0
2017-07-29T23:09:10.001Z,0
2017-07-29T23:19:10.000Z,0
2017-07-29T23:29:09.945Z,0
2017-07-29T23:39:09.995Z,0
2017-07-29T23:49:09.966Z,0
2017-07-29T23:59:10.047Z,0
